createdAt,value
2018-03-20T00:00:46.430Z,-5.50
2018-03-20T00:03:14.729Z,-5.60
2018-03-20T00:05:42.309Z,-5.60
2018-03-20T00:08:09.875Z,-5.70
2018-03-20T00:10:37.419Z,-5.70
2018-03-20T00:13:04.941Z,-5.80
2018-03-20T00:15:32.490Z,-5.80
2018-03-20T00:18:00.118Z,-5.80
2018-03-20T00:20:27.663Z,-5.80
2018-03-20T00:22:55.242Z,-5.80
2018-03-20T00:25:22.787Z,-5.90
2018-03-20T00:27:50.311Z,-6.00
2018-03-20T00:30:17.838Z,-6.00
2018-03-20T00:32:45.377Z,-6.00
2018-03-20T00:35:12.900Z,-6.10
2018-03-20T00:37:41.215Z,-6.10
2018-03-20T00:40:08.739Z,-6.10
2018-03-20T00:42:36.278Z,-6.10
2018-03-20T00:45:03.810Z,-6.10
2018-03-20T00:47:31.358Z,-6.10
2018-03-20T00:49:58.879Z,-6.10
2018-03-20T00:52:26.426Z,-6.20
2018-03-20T00:54:53.945Z,-6.20
2018-03-20T00:57:21.457Z,-6.20
2018-03-20T00:59:48.994Z,-6.20
2018-03-20T01:02:16.510Z,-6.30
2018-03-20T01:04:44.070Z,-6.30
2018-03-20T01:07:11.589Z,-6.30
2018-03-20T01:09:39.136Z,-6.30
2018-03-20T01:12:06.657Z,-6.40
2018-03-20T01:14:34.206Z,-6.40
2018-03-20T01:17:01.797Z,-6.40
2018-03-20T01:19:29.343Z,-6.40
2018-03-20T01:21:56.870Z,-6.50
2018-03-20T01:24:25.190Z,-6.50
2018-03-20T01:26:52.710Z,-6.50
2018-03-20T01:29:20.253Z,-6.60
2018-03-20T01:31:47.769Z,-6.60
2018-03-20T01:34:15.337Z,-6.60
2018-03-20T01:36:42.860Z,-6.70
2018-03-20T01:39:11.149Z,-6.80
2018-03-20T01:41:39.460Z,-6.80
2018-03-20T01:44:06.978Z,-6.90
2018-03-20T01:46:35.282Z,-6.90
2018-03-20T01:49:02.803Z,-6.90
2018-03-20T01:51:30.357Z,-6.90
2018-03-20T01:53:57.992Z,-6.90
2018-03-20T01:56:25.641Z,-6.90
2018-03-20T01:58:53.155Z,-7.00
2018-03-20T02:01:20.693Z,-7.00
2018-03-20T02:03:48.217Z,-7.00
2018-03-20T02:06:15.759Z,-7.00
2018-03-20T02:08:44.066Z,-7.10
2018-03-20T02:11:11.600Z,-7.10
2018-03-20T02:13:39.123Z,-7.10
2018-03-20T02:16:06.641Z,-7.10
2018-03-20T02:18:34.177Z,-7.20
2018-03-20T02:21:02.490Z,-7.20
2018-03-20T02:23:30.034Z,-7.20
2018-03-20T02:25:57.566Z,-7.30
2018-03-20T02:28:25.881Z,-7.50
2018-03-20T02:30:53.394Z,-7.50
2018-03-20T02:33:20.937Z,-7.50
2018-03-20T02:35:48.455Z,-7.60
2018-03-20T02:38:16.004Z,-7.60
2018-03-20T02:40:43.531Z,-7.60
2018-03-20T02:43:11.155Z,-7.60
2018-03-20T02:45:38.669Z,-7.60
2018-03-20T02:48:09.516Z,-7.60
2018-03-20T02:50:38.616Z,-7.70
2018-03-20T02:53:10.627Z,-7.70
2018-03-20T02:55:43.417Z,-7.70
2018-03-20T02:58:12.755Z,-7.70
2018-03-20T03:00:41.923Z,-7.70
2018-03-20T03:03:15.164Z,-7.80
2018-03-20T03:05:52.365Z,-7.80
2018-03-20T03:08:19.931Z,-7.80
2018-03-20T03:10:48.193Z,-7.80
2018-03-20T03:16:03.508Z,-7.90
2018-03-20T03:18:34.174Z,-7.90
2018-03-20T03:21:05.055Z,-7.90
2018-03-20T03:23:43.290Z,-8.00
2018-03-20T03:26:12.398Z,-8.10
2018-03-20T03:28:48.094Z,-8.00
2018-03-20T03:31:16.224Z,-8.10
2018-03-20T03:33:47.125Z,-8.10
2018-03-20T03:36:17.122Z,-8.10
2018-03-20T03:38:46.363Z,-8.20
2018-03-20T03:41:15.973Z,-8.20
2018-03-20T03:43:46.897Z,-8.20
2018-03-20T03:46:24.378Z,-8.20
2018-03-20T03:48:53.826Z,-8.30
2018-03-20T03:51:24.778Z,-8.20
2018-03-20T03:53:53.746Z,-8.30
2018-03-20T03:56:25.301Z,-8.30
2018-03-20T03:58:57.189Z,-8.30
2018-03-20T04:04:14.228Z,-8.40
2018-03-20T04:06:45.936Z,-8.40
2018-03-20T04:09:15.484Z,-8.40
2018-03-20T04:11:44.276Z,-8.40
2018-03-20T04:14:13.165Z,-8.40
2018-03-20T04:16:45.654Z,-8.50
2018-03-20T04:21:48.062Z,-8.60
2018-03-20T04:24:17.012Z,-8.60
2018-03-20T04:26:44.562Z,-8.60
2018-03-20T04:29:16.711Z,-8.70
2018-03-20T04:31:49.852Z,-8.70
2018-03-20T04:34:19.002Z,-8.70
2018-03-20T04:36:47.432Z,-8.70
2018-03-20T04:39:15.270Z,-8.70
2018-03-20T04:41:43.554Z,-8.70
2018-03-20T04:44:11.859Z,-8.70
2018-03-20T04:46:39.386Z,-8.70
2018-03-20T04:49:07.702Z,-8.70
2018-03-20T04:51:35.213Z,-8.70
2018-03-20T04:54:02.744Z,-8.80
2018-03-20T04:56:30.260Z,-8.80
2018-03-20T04:58:58.568Z,-8.80
2018-03-20T05:01:26.092Z,-8.90
2018-03-20T05:03:54.393Z,-8.80
2018-03-20T05:06:21.928Z,-8.90
2018-03-20T05:08:50.235Z,-8.90
2018-03-20T05:11:17.756Z,-8.90
2018-03-20T05:13:46.075Z,-8.90
2018-03-20T05:16:13.599Z,-8.90
2018-03-20T05:21:59.466Z,-9.00
2018-03-20T05:24:27.010Z,-9.00
2018-03-20T05:26:54.522Z,-9.00
2018-03-20T05:29:22.062Z,-9.00
2018-03-20T05:31:49.577Z,-9.00
2018-03-20T05:34:17.108Z,-9.00
2018-03-20T05:36:44.620Z,-9.00
2018-03-20T05:39:12.158Z,-9.10
2018-03-20T05:41:39.682Z,-9.10
2018-03-20T05:44:07.202Z,-9.00
2018-03-20T05:49:38.365Z,-8.90
2018-03-20T05:52:06.491Z,-8.80
2018-03-20T05:54:34.009Z,-7.60
2018-03-20T05:57:01.551Z,-5.10
2018-03-20T05:59:29.130Z,-2.60
2018-03-20T06:01:56.689Z,-0.60
2018-03-20T06:04:24.200Z,1.10
2018-03-20T06:06:51.734Z,2.50
2018-03-20T06:09:19.241Z,3.60
2018-03-20T06:11:47.542Z,5.20
2018-03-20T06:14:15.117Z,5.20
2018-03-20T06:16:42.656Z,5.50
2018-03-20T06:19:10.236Z,5.50
2018-03-20T06:21:37.792Z,5.70
2018-03-20T06:24:05.306Z,6.10
2018-03-20T06:26:32.923Z,6.70
2018-03-20T06:29:00.440Z,6.80
2018-03-20T06:31:28.045Z,6.90
2018-03-20T06:33:55.574Z,7.40
2018-03-20T06:36:23.854Z,8.70
2018-03-20T06:38:52.146Z,9.30
2018-03-20T06:41:19.721Z,9.30
2018-03-20T06:43:47.279Z,9.90
2018-03-20T06:46:14.803Z,10.20
2018-03-20T06:48:43.119Z,9.10
2018-03-20T06:51:10.635Z,9.10
2018-03-20T06:53:38.173Z,6.60
2018-03-20T06:56:05.685Z,4.20
2018-03-20T06:58:33.229Z,2.20
2018-03-20T07:01:01.529Z,-0.60
2018-03-20T07:03:29.042Z,-0.60
2018-03-20T07:05:56.592Z,-1.30
2018-03-20T07:08:24.107Z,-1.70
2018-03-20T07:10:51.656Z,-2.00
2018-03-20T07:13:19.937Z,-2.40
2018-03-20T07:15:48.248Z,-2.50
2018-03-20T07:18:15.766Z,-2.50
2018-03-20T07:20:44.069Z,-2.40
2018-03-20T07:23:11.586Z,-2.50
2018-03-20T07:25:39.121Z,-2.40
2018-03-20T07:28:06.638Z,-2.50
2018-03-20T07:30:34.941Z,-2.50
2018-03-20T07:33:02.459Z,-2.50
2018-03-20T07:35:29.997Z,-2.50
2018-03-20T07:37:57.526Z,-2.40
2018-03-20T07:40:25.042Z,-2.40
2018-03-20T07:42:53.354Z,-2.20
2018-03-20T07:45:20.879Z,-2.20
2018-03-20T07:47:49.195Z,-2.20
2018-03-20T07:50:16.721Z,-2.20
2018-03-20T07:52:45.025Z,-2.30
2018-03-20T07:55:12.607Z,-2.30
2018-03-20T07:57:40.162Z,-2.20
2018-03-20T08:00:07.722Z,-2.20
2018-03-20T08:02:35.286Z,-2.30
2018-03-20T08:05:02.805Z,-2.20
2018-03-20T08:07:31.114Z,-2.10
2018-03-20T08:09:58.637Z,-2.20
2018-03-20T08:12:26.174Z,-2.10
2018-03-20T08:14:53.702Z,-2.10
2018-03-20T08:17:21.242Z,-2.00
2018-03-20T08:19:49.525Z,-1.90
2018-03-20T08:22:17.041Z,-1.90
2018-03-20T08:24:44.580Z,-1.80
2018-03-20T08:27:12.094Z,-1.80
2018-03-20T08:29:40.401Z,-1.80
2018-03-20T08:32:07.973Z,-1.80
2018-03-20T08:34:35.520Z,-1.80
2018-03-20T08:37:03.042Z,-1.80
2018-03-20T08:39:30.654Z,-1.80
2018-03-20T08:41:58.214Z,-1.70
2018-03-20T08:44:25.775Z,-1.70
2018-03-20T08:46:53.285Z,-1.80
2018-03-20T08:49:20.824Z,-1.90
2018-03-20T08:51:48.351Z,-1.90
2018-03-20T08:54:15.873Z,-1.90
2018-03-20T08:56:44.173Z,-2.10
2018-03-20T08:59:11.698Z,-2.10
2018-03-20T09:01:39.323Z,-2.10
2018-03-20T09:04:06.957Z,-2.10
2018-03-20T09:06:35.357Z,-2.20
2018-03-20T09:09:03.036Z,-2.20
2018-03-20T09:11:30.603Z,-2.20
2018-03-20T09:13:59.316Z,-2.20
2018-03-20T09:16:26.943Z,-2.10
2018-03-20T09:18:54.500Z,-2.10
2018-03-20T09:21:22.037Z,-2.10
2018-03-20T09:23:50.321Z,-2.20
2018-03-20T09:26:17.903Z,-2.20
2018-03-20T09:28:45.418Z,-2.20
2018-03-20T09:31:13.847Z,-2.30
2018-03-20T09:33:41.406Z,-2.30
2018-03-20T09:36:08.926Z,-2.20
2018-03-20T09:38:37.249Z,-1.80
2018-03-20T09:41:04.818Z,-1.80
2018-03-20T09:43:32.354Z,-1.50
2018-03-20T09:46:00.634Z,-1.20
2018-03-20T09:48:28.216Z,-1.20
2018-03-20T09:50:55.745Z,-1.00
2018-03-20T09:53:24.051Z,-0.60
2018-03-20T09:55:51.622Z,-0.60
2018-03-20T09:58:19.169Z,-0.40
2018-03-20T10:00:46.686Z,-0.10
2018-03-20T10:03:14.246Z,0.00
2018-03-20T10:05:41.753Z,0.20
2018-03-20T10:08:09.381Z,0.50
2018-03-20T10:10:37.699Z,0.50
2018-03-20T10:13:05.262Z,0.50
2018-03-20T10:15:32.796Z,0.50
2018-03-20T10:18:01.078Z,0.30
2018-03-20T10:20:28.605Z,0.20
2018-03-20T10:22:56.117Z,0.20
2018-03-20T10:25:23.649Z,0.00
2018-03-20T10:27:51.938Z,-0.10
2018-03-20T10:30:19.523Z,-0.10
2018-03-20T10:32:47.081Z,-0.10
2018-03-20T10:35:14.614Z,0.10
2018-03-20T10:37:42.902Z,0.20
2018-03-20T10:40:10.487Z,0.20
2018-03-20T10:42:38.041Z,0.30
2018-03-20T10:45:06.318Z,0.30
2018-03-20T10:47:33.826Z,0.30
2018-03-20T10:50:01.441Z,0.20
2018-03-20T10:52:28.969Z,0.20
2018-03-20T10:54:56.537Z,0.20
2018-03-20T10:57:24.087Z,0.10
2018-03-20T10:59:52.402Z,0.00
2018-03-20T11:02:19.946Z,0.00
2018-03-20T11:04:47.476Z,-0.10
2018-03-20T11:07:15.093Z,-0.20
2018-03-20T11:09:42.613Z,-0.40
2018-03-20T11:12:10.923Z,-0.40
2018-03-20T11:14:38.453Z,-0.40
2018-03-20T11:17:06.760Z,-0.50
2018-03-20T11:19:34.269Z,-0.50
2018-03-20T11:22:01.807Z,-0.50
2018-03-20T11:24:29.348Z,-0.40
2018-03-20T11:26:57.017Z,-0.30
2018-03-20T11:29:24.533Z,-0.30
2018-03-20T11:31:52.857Z,-0.10
2018-03-20T11:34:20.411Z,-0.20
2018-03-20T11:36:47.934Z,-0.20
2018-03-20T11:39:16.245Z,-0.20
2018-03-20T11:41:43.762Z,-0.20
2018-03-20T11:44:11.293Z,-0.20
2018-03-20T11:46:38.818Z,-0.20
2018-03-20T11:49:06.354Z,-0.10
2018-03-20T11:51:34.639Z,0.10
2018-03-20T11:54:02.940Z,0.10
2018-03-20T11:56:30.463Z,0.10
2018-03-20T11:58:58.001Z,0.00
2018-03-20T12:01:25.518Z,0.00
2018-03-20T12:03:53.059Z,-0.10
2018-03-20T12:06:21.346Z,-0.20
2018-03-20T12:08:50.490Z,-0.20
2018-03-20T12:11:18.005Z,-0.10
2018-03-20T12:13:46.296Z,-0.10
2018-03-20T12:16:13.842Z,-0.10
2018-03-20T12:18:42.139Z,-0.10
2018-03-20T12:21:09.720Z,-0.20
2018-03-20T12:23:37.233Z,-0.20
2018-03-20T12:26:05.538Z,-0.10
2018-03-20T12:28:33.318Z,-0.10
2018-03-20T12:31:00.869Z,-0.20
2018-03-20T12:33:28.393Z,-0.10
2018-03-20T12:35:55.929Z,-0.20
2018-03-20T12:38:23.456Z,-0.20
2018-03-20T12:40:51.017Z,-0.20
2018-03-20T12:43:18.537Z,-0.10
2018-03-20T12:45:46.151Z,-0.10
2018-03-20T13:08:10.479Z,0.30
2018-03-20T13:10:37.993Z,0.30
2018-03-20T13:13:05.525Z,0.40
2018-03-20T13:15:33.046Z,0.40
2018-03-20T13:18:00.618Z,0.40
2018-03-20T13:20:28.134Z,0.40
2018-03-20T13:22:56.447Z,0.50
2018-03-20T13:25:23.965Z,0.40
2018-03-20T13:27:51.511Z,0.50
2018-03-20T13:30:19.030Z,0.60
2018-03-20T13:32:46.563Z,0.60
2018-03-20T13:35:14.078Z,0.70
2018-03-20T13:37:41.620Z,0.80
2018-03-20T13:40:09.138Z,0.90
2018-03-20T13:42:36.670Z,0.90
2018-03-20T13:45:04.327Z,0.80
2018-03-20T13:47:31.885Z,0.80
2018-03-20T13:49:59.392Z,0.70
2018-03-20T13:52:28.443Z,0.70
2018-03-20T13:54:55.966Z,0.60
2018-03-20T13:57:24.246Z,0.70
2018-03-20T13:59:52.554Z,0.60
2018-03-20T14:02:20.075Z,0.60
2018-03-20T14:04:48.380Z,0.70
2018-03-20T14:07:15.894Z,0.70
2018-03-20T14:09:43.438Z,0.80
2018-03-20T14:12:10.954Z,0.80
2018-03-20T14:14:39.320Z,0.90
2018-03-20T14:17:07.454Z,0.90
2018-03-20T14:19:34.990Z,1.00
2018-03-20T14:22:02.510Z,1.00
2018-03-20T14:24:30.810Z,1.10
2018-03-20T14:26:58.402Z,1.10
2018-03-20T14:29:25.937Z,1.10
2018-03-20T14:31:53.459Z,1.10
2018-03-20T14:34:21.081Z,1.10
2018-03-20T14:36:48.642Z,1.20
2018-03-20T14:39:16.158Z,1.20
2018-03-20T14:41:44.488Z,1.30
2018-03-20T14:44:12.003Z,1.30
2018-03-20T14:46:40.303Z,1.30
2018-03-20T14:49:07.827Z,1.30
2018-03-20T14:51:35.368Z,1.40
2018-03-20T14:54:02.895Z,1.40
2018-03-20T14:56:30.439Z,1.50
2018-03-20T14:58:57.971Z,1.50
2018-03-20T15:01:25.514Z,1.50
2018-03-20T15:03:53.030Z,1.50
2018-03-20T15:06:20.585Z,1.50
2018-03-20T15:08:48.870Z,1.20
2018-03-20T15:11:17.286Z,1.10
2018-03-20T15:13:44.799Z,1.10
2018-03-20T15:16:13.102Z,1.20
2018-03-20T15:18:40.622Z,1.20
2018-03-20T15:21:08.161Z,1.30
2018-03-20T15:23:35.729Z,1.30
2018-03-20T15:26:03.244Z,1.40
2018-03-20T15:28:30.769Z,1.50
2018-03-20T15:30:58.387Z,1.60
2018-03-20T15:33:25.942Z,1.60
2018-03-20T15:35:53.467Z,1.70
2018-03-20T15:38:21.782Z,1.60
2018-03-20T15:40:49.346Z,1.60
2018-03-20T15:43:16.885Z,1.50
2018-03-20T15:45:44.406Z,1.50
2018-03-20T15:48:11.953Z,1.50
2018-03-20T15:50:39.491Z,1.50
2018-03-20T15:53:07.027Z,1.50
2018-03-20T15:55:34.548Z,1.50
2018-03-20T15:58:02.086Z,1.50
2018-03-20T16:00:29.614Z,1.50
2018-03-20T16:02:57.155Z,1.40
2018-03-20T16:05:25.439Z,1.40
2018-03-20T16:07:53.748Z,1.40
2018-03-20T16:10:21.317Z,1.30
2018-03-20T16:12:48.858Z,1.30
2018-03-20T16:15:16.374Z,1.30
2018-03-20T16:17:43.931Z,1.30
2018-03-20T16:20:11.455Z,1.30
2018-03-20T16:22:38.972Z,1.30
2018-03-20T16:25:07.295Z,1.30
2018-03-20T16:27:34.810Z,1.20
2018-03-20T16:30:03.109Z,1.20
2018-03-20T16:32:30.637Z,1.20
2018-03-20T16:34:58.170Z,1.10
2018-03-20T16:37:25.685Z,1.10
2018-03-20T16:39:53.318Z,1.10
2018-03-20T16:42:20.840Z,1.00
2018-03-20T16:44:48.391Z,1.10
2018-03-20T16:47:15.906Z,1.10
2018-03-20T16:49:44.206Z,1.10
2018-03-20T16:52:11.722Z,1.10
2018-03-20T16:54:39.258Z,1.00
2018-03-20T16:57:06.774Z,1.00
2018-03-20T16:59:35.072Z,0.90
2018-03-20T17:02:02.661Z,0.90
2018-03-20T17:04:30.194Z,0.90
2018-03-20T17:06:57.782Z,0.90
2018-03-20T17:09:25.325Z,0.90
2018-03-20T17:11:52.837Z,0.90
2018-03-20T17:14:20.356Z,0.80
2018-03-20T17:16:47.903Z,0.80
2018-03-20T17:19:15.482Z,0.90
2018-03-20T17:21:43.149Z,0.80
2018-03-20T17:24:10.693Z,0.80
2018-03-20T17:26:38.230Z,0.70
2018-03-20T17:29:06.510Z,0.70
2018-03-20T17:31:34.814Z,0.70
2018-03-20T17:34:02.394Z,0.70
2018-03-20T17:36:29.930Z,0.70
2018-03-20T17:38:57.449Z,0.60
2018-03-20T17:41:25.067Z,0.60
2018-03-20T17:43:52.590Z,0.60
2018-03-20T17:46:20.937Z,0.60
2018-03-20T17:48:48.426Z,0.60
2018-03-20T17:51:16.722Z,0.60
2018-03-20T17:53:44.240Z,0.60
2018-03-20T17:56:11.774Z,0.60
2018-03-20T17:58:39.301Z,0.60
2018-03-20T18:01:06.840Z,0.50
2018-03-20T18:03:35.122Z,0.50
2018-03-20T18:06:03.427Z,0.50
2018-03-20T18:08:30.950Z,0.50
2018-03-20T18:10:58.467Z,0.40
2018-03-20T18:13:26.021Z,0.40
2018-03-20T18:15:53.535Z,0.30
2018-03-20T18:18:21.066Z,0.10
2018-03-20T18:20:48.582Z,0.10
2018-03-20T18:23:16.114Z,0.00
2018-03-20T18:25:43.730Z,-0.10
2018-03-20T18:28:11.265Z,-0.20
2018-03-20T18:30:38.860Z,-0.30
2018-03-20T18:33:06.402Z,-0.30
2018-03-20T18:35:33.930Z,-0.40
2018-03-20T18:38:02.234Z,-0.40
2018-03-20T18:40:29.750Z,-0.50
2018-03-20T18:42:59.092Z,-0.50
2018-03-20T18:45:26.661Z,-0.60
2018-03-20T18:47:54.193Z,-0.60
2018-03-20T18:50:22.483Z,-0.80
2018-03-20T18:52:50.897Z,-0.80
2018-03-20T18:55:18.473Z,-0.80
2018-03-20T18:57:46.015Z,-0.90
2018-03-20T19:00:13.534Z,-1.00
2018-03-20T19:02:41.853Z,-1.00
2018-03-20T19:05:09.367Z,-1.10
2018-03-20T19:07:36.905Z,-1.10
2018-03-20T19:10:04.421Z,-1.20
2018-03-20T19:12:31.933Z,-1.30
2018-03-20T19:14:59.569Z,-1.40
2018-03-20T19:17:27.084Z,-1.40
2018-03-20T19:19:55.391Z,-1.50
2018-03-20T19:22:22.962Z,-1.50
2018-03-20T19:24:50.501Z,-1.60
2018-03-20T19:27:18.023Z,-1.70
2018-03-20T19:29:45.559Z,-1.70
2018-03-20T19:32:13.074Z,-1.90
2018-03-20T19:34:41.482Z,-2.20
2018-03-20T19:37:09.002Z,-2.20
2018-03-20T19:39:37.305Z,-2.30
2018-03-20T19:42:04.883Z,-2.40
2018-03-20T19:44:32.429Z,-2.40
2018-03-20T19:46:59.953Z,-2.50
2018-03-20T19:49:27.489Z,-2.50
2018-03-20T19:51:55.011Z,-2.50
2018-03-20T19:54:22.550Z,-2.60
2018-03-20T19:56:50.837Z,-2.80
2018-03-20T19:59:19.150Z,-2.90
2018-03-20T20:01:46.711Z,-2.90
2018-03-20T20:04:14.238Z,-3.00
2018-03-20T20:06:42.524Z,-3.00
2018-03-20T20:09:10.067Z,-3.00
2018-03-20T20:11:38.358Z,-3.20
2018-03-20T20:14:05.897Z,-3.20
2018-03-20T20:16:33.414Z,-3.20
2018-03-20T20:19:00.955Z,-3.30
2018-03-20T20:21:28.522Z,-3.40
2018-03-20T20:23:56.039Z,-3.50
2018-03-20T20:26:24.348Z,-3.70
2018-03-20T20:28:51.865Z,-3.70
2018-03-20T20:31:19.401Z,-3.70
2018-03-20T20:33:46.918Z,-3.70
2018-03-20T20:36:14.456Z,-3.70
2018-03-20T20:38:41.978Z,-3.70
2018-03-20T20:41:09.627Z,-3.60
2018-03-20T20:43:37.149Z,-3.60
2018-03-20T20:46:05.455Z,-3.90
2018-03-20T20:48:33.033Z,-3.90
2018-03-20T20:51:00.572Z,-4.00
2018-03-20T20:53:29.284Z,-4.00
2018-03-20T20:55:56.838Z,-3.90
2018-03-20T20:58:24.365Z,-3.90
2018-03-20T21:00:52.680Z,-3.80
2018-03-20T21:03:20.198Z,-3.80
2018-03-20T21:05:48.498Z,-3.80
2018-03-20T21:08:16.018Z,-3.80
2018-03-20T21:10:43.566Z,-3.70
2018-03-20T21:13:11.087Z,-3.70
2018-03-20T21:15:38.641Z,-3.80
2018-03-20T21:18:06.162Z,-3.80
2018-03-20T21:20:33.677Z,-3.80
2018-03-20T21:23:01.245Z,-3.90
2018-03-20T21:25:28.798Z,-3.90
2018-03-20T21:27:56.379Z,-3.90
2018-03-20T21:30:23.876Z,-3.90
2018-03-20T21:32:51.410Z,-3.90
2018-03-20T21:35:18.953Z,-4.10
2018-03-20T21:37:46.509Z,-4.10
2018-03-20T21:40:14.026Z,-4.20
2018-03-20T21:42:42.330Z,-4.30
2018-03-20T21:45:09.855Z,-4.40
2018-03-20T21:47:37.387Z,-4.30
2018-03-20T21:50:04.902Z,-4.30
2018-03-20T21:52:32.443Z,-4.30
2018-03-20T21:55:00.727Z,-4.20
2018-03-20T21:57:29.042Z,-4.20
2018-03-20T21:59:56.562Z,-4.20
2018-03-20T22:02:24.870Z,-4.10
2018-03-20T22:04:52.396Z,-4.10
2018-03-20T22:07:19.935Z,-4.10
2018-03-20T22:09:47.460Z,-4.00
2018-03-20T22:12:15.030Z,-4.00
2018-03-20T22:14:42.546Z,-4.00
2018-03-20T22:17:10.082Z,-4.00
2018-03-20T22:19:37.598Z,-4.00
2018-03-20T22:22:05.171Z,-4.10
2018-03-20T22:24:32.730Z,-4.20
2018-03-20T22:27:00.246Z,-4.30
2018-03-20T22:29:27.778Z,-4.40
2018-03-20T22:31:55.299Z,-4.40
2018-03-20T22:34:22.878Z,-4.50
2018-03-20T22:36:50.399Z,-4.50
2018-03-20T22:39:18.718Z,-4.60
2018-03-20T22:41:46.282Z,-4.60
2018-03-20T22:44:13.842Z,-4.60
2018-03-20T22:46:41.361Z,-4.70
2018-03-20T22:49:09.668Z,-4.90
2018-03-20T22:51:37.186Z,-5.00
2018-03-20T22:54:04.727Z,-5.10
2018-03-20T22:56:32.242Z,-5.10
2018-03-20T22:58:59.783Z,-5.20
2018-03-20T23:01:28.065Z,-5.30
2018-03-20T23:03:56.378Z,-5.30
2018-03-20T23:06:23.898Z,-5.30
2018-03-20T23:08:52.213Z,-5.40
2018-03-20T23:11:19.730Z,-5.40
2018-03-20T23:13:47.266Z,-5.50
2018-03-20T23:16:14.789Z,-5.50
2018-03-20T23:18:42.329Z,-5.50
2018-03-20T23:21:10.620Z,-5.50
2018-03-20T23:23:38.206Z,-5.50
2018-03-20T23:26:05.713Z,-5.50
2018-03-20T23:28:33.456Z,-5.50
2018-03-20T23:31:00.970Z,-5.40
2018-03-20T23:33:28.507Z,-5.40
2018-03-20T23:35:56.026Z,-5.40
2018-03-20T23:38:23.557Z,-5.50
2018-03-20T23:40:51.142Z,-5.50
2018-03-20T23:43:18.662Z,-5.50
2018-03-20T23:45:46.964Z,-5.50
2018-03-20T23:48:14.497Z,-5.50
2018-03-20T23:50:42.801Z,-5.60
2018-03-20T23:53:10.317Z,-5.60
2018-03-20T23:55:37.857Z,-5.70
2018-03-20T23:58:05.383Z,-5.80
